createdAt,value
2022-08-31T00:02:44.678Z,2.08
2022-08-31T00:07:48.025Z,2.10
2022-08-31T00:12:52.603Z,1.88
2022-08-31T00:18:00.776Z,1.60
2022-08-31T00:23:04.309Z,1.75
2022-08-31T00:28:10.194Z,1.77
2022-08-31T00:33:14.045Z,1.83
2022-08-31T00:38:17.373Z,1.30
2022-08-31T00:43:42.233Z,1.20
2022-08-31T00:48:51.361Z,1.33
2022-08-31T00:53:54.744Z,1.40
2022-08-31T00:59:01.137Z,1.75
2022-08-31T01:04:05.412Z,1.30
2022-08-31T01:09:09.773Z,1.42
2022-08-31T01:14:15.263Z,1.40
2022-08-31T01:19:25.903Z,1.58
2022-08-31T01:24:34.345Z,1.60
2022-08-31T01:29:37.627Z,1.63
2022-08-31T01:34:41.125Z,1.40
2022-08-31T01:39:45.790Z,1.38
2022-08-31T01:44:49.068Z,1.38
2022-08-31T01:49:52.321Z,1.65
2022-08-31T01:55:01.085Z,1.65
2022-08-31T02:00:08.988Z,1.50
2022-08-31T02:05:18.706Z,1.58
2022-08-31T02:10:23.648Z,1.52
2022-08-31T02:15:27.023Z,1.50
2022-08-31T02:20:30.392Z,1.50
2022-08-31T02:25:35.194Z,1.65
2022-08-31T02:30:39.813Z,1.70
2022-08-31T02:35:43.384Z,1.70
2022-08-31T02:40:48.626Z,1.45
2022-08-31T02:45:53.960Z,1.65
2022-08-31T02:51:05.895Z,1.90
2022-08-31T02:56:11.349Z,1.70
2022-08-31T03:01:14.768Z,1.50
2022-08-31T03:06:19.931Z,1.63
2022-08-31T03:11:24.575Z,1.73
2022-08-31T03:16:28.107Z,2.42
2022-08-31T03:21:31.308Z,1.95
2022-08-31T03:26:35.936Z,1.65
2022-08-31T03:31:39.586Z,1.85
2022-08-31T03:36:43.065Z,1.50
2022-08-31T03:41:48.213Z,1.70
2022-08-31T03:46:56.460Z,1.63
2022-08-31T03:52:02.300Z,1.50
2022-08-31T03:57:10.152Z,1.90
2022-08-31T04:02:14.116Z,1.80
2022-08-31T04:07:44.341Z,1.58
2022-08-31T04:13:29.458Z,1.58
2022-08-31T04:18:54.565Z,1.50
2022-08-31T04:23:59.627Z,1.63
2022-08-31T04:29:12.742Z,1.42
2022-08-31T04:34:17.306Z,1.60
2022-08-31T04:39:21.114Z,1.60
2022-08-31T04:44:29.206Z,1.50
2022-08-31T04:49:35.070Z,1.70
2022-08-31T04:54:38.846Z,1.75
2022-08-31T04:59:43.496Z,1.67
2022-08-31T05:05:06.249Z,1.67
2022-08-31T05:10:10.374Z,1.80
2022-08-31T05:15:15.097Z,1.92
2022-08-31T05:20:18.924Z,2.05
2022-08-31T05:25:22.222Z,2.10
2022-08-31T05:30:27.302Z,1.90
2022-08-31T05:35:41.254Z,1.70
2022-08-31T05:40:44.568Z,1.88
2022-08-31T05:45:49.506Z,1.83
2022-08-31T05:50:53.105Z,1.75
2022-08-31T05:56:02.078Z,1.90
2022-08-31T06:01:14.903Z,1.90
2022-08-31T06:06:44.597Z,1.73
2022-08-31T06:11:51.351Z,1.65
2022-08-31T06:16:56.752Z,1.88
2022-08-31T06:22:00.748Z,1.90
2022-08-31T06:27:06.120Z,1.70
2022-08-31T06:32:15.768Z,2.10
2022-08-31T06:37:39.269Z,1.75
2022-08-31T06:42:45.727Z,2.30
2022-08-31T06:47:50.315Z,2.10
2022-08-31T06:52:55.734Z,2.08
2022-08-31T06:58:01.077Z,2.15
2022-08-31T07:03:24.364Z,1.80
2022-08-31T07:08:28.851Z,1.90
2022-08-31T07:13:32.798Z,2.05
2022-08-31T07:18:38.222Z,1.90
2022-08-31T07:23:43.219Z,2.08
2022-08-31T07:28:53.048Z,2.20
2022-08-31T07:33:58.976Z,2.00
2022-08-31T07:39:32.248Z,2.15
2022-08-31T07:44:35.702Z,2.13
2022-08-31T07:49:48.105Z,1.98
2022-08-31T07:55:25.447Z,1.88
2022-08-31T08:00:33.170Z,2.22
2022-08-31T08:05:38.851Z,2.10
2022-08-31T08:11:10.118Z,1.77
2022-08-31T08:16:15.075Z,2.22
2022-08-31T08:21:46.194Z,2.17
2022-08-31T08:26:54.407Z,1.88
2022-08-31T08:32:19.079Z,1.90
2022-08-31T08:37:35.869Z,2.40
2022-08-31T08:42:45.609Z,2.00
2022-08-31T08:47:50.032Z,2.20
2022-08-31T08:52:57.548Z,1.92
2022-08-31T08:58:05.982Z,2.00
2022-08-31T09:03:21.487Z,1.75
2022-08-31T09:09:08.721Z,1.95
2022-08-31T09:14:32.818Z,2.05
2022-08-31T09:19:58.373Z,1.77
2022-08-31T09:25:05.448Z,1.88
2022-08-31T09:30:50.886Z,2.03
2022-08-31T09:35:56.950Z,1.73
2022-08-31T09:41:08.342Z,1.92
2022-08-31T09:46:29.752Z,2.13
2022-08-31T09:51:35.867Z,2.00
2022-08-31T09:56:55.614Z,1.88
2022-08-31T10:02:00.288Z,1.90
2022-08-31T10:07:11.499Z,1.90
2022-08-31T10:12:21.456Z,1.58
2022-08-31T10:17:31.930Z,1.65
2022-08-31T10:22:41.877Z,1.75
2022-08-31T10:27:52.203Z,1.98
2022-08-31T10:33:01.609Z,1.55
2022-08-31T10:38:20.347Z,1.75
2022-08-31T10:43:32.368Z,1.77
2022-08-31T10:48:39.705Z,1.67
2022-08-31T10:53:53.114Z,2.00
2022-08-31T10:59:09.730Z,1.85
2022-08-31T11:04:50.044Z,1.85
2022-08-31T11:10:00.999Z,1.70
2022-08-31T11:15:22.578Z,1.45
2022-08-31T11:20:56.993Z,1.55
2022-08-31T11:26:47.359Z,1.45
2022-08-31T11:31:55.201Z,1.55
2022-08-31T11:37:01.211Z,1.60
2022-08-31T11:42:10.472Z,1.55
2022-08-31T11:47:35.685Z,1.63
2022-08-31T11:52:48.448Z,1.50
2022-08-31T11:58:26.663Z,1.35
2022-08-31T12:03:53.949Z,1.50
2022-08-31T12:09:20.666Z,1.95
2022-08-31T12:14:38.404Z,1.40
2022-08-31T12:20:01.587Z,1.55
2022-08-31T12:25:14.227Z,1.80
2022-08-31T12:30:22.642Z,1.58
2022-08-31T12:35:28.770Z,1.58
2022-08-31T12:40:33.889Z,1.42
2022-08-31T12:46:03.288Z,1.80
2022-08-31T12:51:17.168Z,1.80
2022-08-31T12:56:27.621Z,1.63
2022-08-31T13:01:31.406Z,1.38
2022-08-31T13:06:39.253Z,1.50
2022-08-31T13:11:43.982Z,1.80
2022-08-31T13:16:50.034Z,1.52
2022-08-31T13:21:58.026Z,1.73
2022-08-31T13:27:11.112Z,1.70
2022-08-31T13:32:32.855Z,1.60
2022-08-31T13:37:41.305Z,1.60
2022-08-31T13:42:50.818Z,1.55
2022-08-31T13:48:03.281Z,1.33
2022-08-31T13:53:26.596Z,1.20
2022-08-31T13:58:32.428Z,1.25
2022-08-31T14:03:46.595Z,1.20
2022-08-31T14:08:53.392Z,1.30
2022-08-31T14:14:06.031Z,1.15
2022-08-31T14:19:10.871Z,1.55
2022-08-31T14:24:16.641Z,1.60
2022-08-31T14:29:19.994Z,1.50
2022-08-31T14:34:27.133Z,1.30
2022-08-31T14:39:34.147Z,1.10
2022-08-31T14:44:39.715Z,1.10
2022-08-31T14:49:44.266Z,1.30
2022-08-31T14:54:49.082Z,1.08
2022-08-31T14:59:57.640Z,1.30
2022-08-31T15:05:05.803Z,1.23
2022-08-31T15:10:13.035Z,1.35
2022-08-31T15:15:20.766Z,0.90
2022-08-31T15:20:24.591Z,1.08
2022-08-31T15:25:29.235Z,1.35
2022-08-31T15:30:33.908Z,1.00
2022-08-31T15:35:41.800Z,1.20
2022-08-31T15:40:46.513Z,1.10
2022-08-31T15:45:49.978Z,0.93
2022-08-31T15:51:00.760Z,1.30
2022-08-31T15:56:06.864Z,1.25
2022-08-31T16:01:16.355Z,1.40
2022-08-31T16:06:22.018Z,1.50
2022-08-31T16:11:31.235Z,1.67
2022-08-31T16:16:37.807Z,1.30
2022-08-31T16:21:45.581Z,1.73
2022-08-31T16:26:54.650Z,1.80
2022-08-31T16:31:58.100Z,2.13
2022-08-31T16:37:07.321Z,2.20
2022-08-31T16:42:13.807Z,1.98
2022-08-31T16:47:18.740Z,1.85
2022-08-31T16:52:26.577Z,1.88
2022-08-31T16:57:32.775Z,1.60
2022-08-31T17:02:36.101Z,1.52
2022-08-31T17:07:42.800Z,1.48
2022-08-31T17:12:48.398Z,1.23
2022-08-31T17:17:51.744Z,1.05
2022-08-31T17:22:55.108Z,0.90
2022-08-31T17:28:05.529Z,1.05
2022-08-31T17:33:12.696Z,1.10
2022-08-31T17:38:17.065Z,1.40
2022-08-31T17:43:21.995Z,1.05
2022-08-31T17:48:28.474Z,1.10
2022-08-31T17:53:34.237Z,0.95
2022-08-31T17:58:39.304Z,1.20
2022-08-31T18:03:42.893Z,1.20
2022-08-31T18:08:46.217Z,1.30
2022-08-31T18:13:53.571Z,1.58
2022-08-31T18:18:57.219Z,1.55
2022-08-31T18:24:00.645Z,1.30
2022-08-31T18:29:06.654Z,1.45
2022-08-31T18:34:12.102Z,1.65
2022-08-31T18:39:40.721Z,1.40
2022-08-31T18:45:15.734Z,1.27
2022-08-31T18:50:19.489Z,1.40
2022-08-31T18:55:22.890Z,1.50
2022-08-31T19:00:29.067Z,1.60
2022-08-31T19:05:32.774Z,1.48
2022-08-31T19:10:36.193Z,1.70
2022-08-31T19:15:42.128Z,1.67
2022-08-31T19:20:46.286Z,1.48
2022-08-31T19:25:50.793Z,1.60
2022-08-31T19:30:55.884Z,1.40
2022-08-31T19:36:03.469Z,1.60
2022-08-31T19:41:16.432Z,1.60
2022-08-31T19:46:22.952Z,1.52
2022-08-31T19:51:27.540Z,1.38
2022-08-31T19:56:31.865Z,1.40
2022-08-31T20:01:37.393Z,1.50
2022-08-31T20:06:41.813Z,1.42
2022-08-31T20:11:47.717Z,1.55
2022-08-31T20:16:52.520Z,1.70
2022-08-31T20:22:06.786Z,1.60
2022-08-31T20:27:10.694Z,1.55
2022-08-31T20:32:15.420Z,1.60
2022-08-31T20:37:18.948Z,1.40
2022-08-31T20:42:23.394Z,1.48
2022-08-31T20:47:45.455Z,1.40
2022-08-31T20:52:48.783Z,1.90
2022-08-31T20:57:52.108Z,1.67
2022-08-31T21:02:58.114Z,1.50
2022-08-31T21:08:02.661Z,1.52
2022-08-31T21:13:07.179Z,1.50
2022-08-31T21:18:12.284Z,1.40
2022-08-31T21:23:15.763Z,1.35
2022-08-31T21:28:19.578Z,1.30
2022-08-31T21:33:24.414Z,1.45
2022-08-31T21:38:27.786Z,1.20
2022-08-31T21:43:31.534Z,1.30
2022-08-31T21:48:38.140Z,1.50
2022-08-31T21:53:42.998Z,1.40
2022-08-31T21:58:46.685Z,1.30
2022-08-31T22:03:54.969Z,1.40
2022-08-31T22:09:02.393Z,1.20
2022-08-31T22:14:08.273Z,1.23
2022-08-31T22:19:14.682Z,1.20
2022-08-31T22:24:26.834Z,1.20
2022-08-31T22:29:33.467Z,1.02
2022-08-31T22:34:43.866Z,0.98
2022-08-31T22:39:47.168Z,1.20
2022-08-31T22:44:50.723Z,1.10
2022-08-31T22:49:55.716Z,1.23
2022-08-31T22:54:59.493Z,1.30
2022-08-31T23:00:02.716Z,1.10
2022-08-31T23:05:09.822Z,1.10
2022-08-31T23:10:18.574Z,1.15
2022-08-31T23:15:22.543Z,1.00
2022-08-31T23:20:27.541Z,1.02
2022-08-31T23:25:32.431Z,1.02
2022-08-31T23:30:36.945Z,1.10
2022-08-31T23:35:43.321Z,1.08
2022-08-31T23:40:47.189Z,1.15
2022-08-31T23:45:50.492Z,1.00
2022-08-31T23:50:56.195Z,1.08
2022-08-31T23:55:59.521Z,1.10
